sensor_id;sensor_type;location;lat;lon;timestamp;P1;durP1;ratioP1;P2;durP2;ratioP2
35550;SDS011;21655;46.056;13.616;2023-05-01T00:01:33;10.23;;;5.53;;
35550;SDS011;21655;46.056;13.616;2023-05-01T00:03:59;10.40;;;5.28;;
35550;SDS011;21655;46.056;13.616;2023-05-01T00:06:25;9.10;;;5.47;;
35550;SDS011;21655;46.056;13.616;2023-05-01T00:08:50;7.38;;;5.18;;
35550;SDS011;21655;46.056;13.616;2023-05-01T00:11:16;8.93;;;5.75;;
35550;SDS011;21655;46.056;13.616;2023-05-01T00:13:41;7.55;;;5.18;;
35550;SDS011;21655;46.056;13.616;2023-05-01T00:16:10;6.95;;;5.00;;
35550;SDS011;21655;46.056;13.616;2023-05-01T00:18:36;10.43;;;5.13;;
35550;SDS011;21655;46.056;13.616;2023-05-01T00:21:02;9.10;;;5.13;;
35550;SDS011;21655;46.056;13.616;2023-05-01T00:23:28;7.20;;;4.97;;
35550;SDS011;21655;46.056;13.616;2023-05-01T00:25:53;9.05;;;5.20;;
35550;SDS011;21655;46.056;13.616;2023-05-01T00:28:18;7.63;;;5.05;;
35550;SDS011;21655;46.056;13.616;2023-05-01T00:30:44;10.65;;;5.38;;
35550;SDS011;21655;46.056;13.616;2023-05-01T00:33:10;10.23;;;5.10;;
35550;SDS011;21655;46.056;13.616;2023-05-01T00:35:36;8.45;;;4.93;;
35550;SDS011;21655;46.056;13.616;2023-05-01T00:38:02;8.00;;;4.90;;
35550;SDS011;21655;46.056;13.616;2023-05-01T00:40:27;10.60;;;5.35;;
35550;SDS011;21655;46.056;13.616;2023-05-01T00:42:53;8.95;;;5.35;;
35550;SDS011;21655;46.056;13.616;2023-05-01T00:45:19;8.95;;;5.13;;
35550;SDS011;21655;46.056;13.616;2023-05-01T00:47:44;7.55;;;5.13;;
35550;SDS011;21655;46.056;13.616;2023-05-01T00:50:11;6.00;;;4.47;;
35550;SDS011;21655;46.056;13.616;2023-05-01T00:52:37;11.38;;;5.13;;
35550;SDS011;21655;46.056;13.616;2023-05-01T00:55:03;8.93;;;5.15;;
35550;SDS011;21655;46.056;13.616;2023-05-01T00:57:30;6.97;;;4.38;;
35550;SDS011;21655;46.056;13.616;2023-05-01T00:59:56;8.23;;;5.10;;
35550;SDS011;21655;46.056;13.616;2023-05-01T01:02:22;7.35;;;4.47;;
35550;SDS011;21655;46.056;13.616;2023-05-01T01:04:48;7.88;;;4.68;;
35550;SDS011;21655;46.056;13.616;2023-05-01T01:07:17;11.25;;;4.65;;
35550;SDS011;21655;46.056;13.616;2023-05-01T01:10:29;7.57;;;4.80;;
35550;SDS011;21655;46.056;13.616;2023-05-01T01:13:12;7.03;;;4.97;;
35550;SDS011;21655;46.056;13.616;2023-05-01T01:15:52;10.68;;;4.97;;
35550;SDS011;21655;46.056;13.616;2023-05-01T01:18:36;10.10;;;4.80;;
35550;SDS011;21655;46.056;13.616;2023-05-01T01:21:12;9.75;;;5.07;;
35550;SDS011;21655;46.056;13.616;2023-05-01T01:29:39;8.57;;;4.95;;
35550;SDS011;21655;46.056;13.616;2023-05-01T01:34:43;9.23;;;5.25;;
35550;SDS011;21655;46.056;13.616;2023-05-01T01:37:16;9.77;;;4.45;;
35550;SDS011;21655;46.056;13.616;2023-05-01T01:39:51;9.02;;;5.07;;
35550;SDS011;21655;46.056;13.616;2023-05-01T01:42:25;7.55;;;5.00;;
35550;SDS011;21655;46.056;13.616;2023-05-01T01:47:26;6.68;;;4.90;;
35550;SDS011;21655;46.056;13.616;2023-05-01T01:49:58;9.05;;;5.05;;
35550;SDS011;21655;46.056;13.616;2023-05-01T01:52:28;8.82;;;5.15;;
35550;SDS011;21655;46.056;13.616;2023-05-01T01:54:57;8.98;;;5.28;;
35550;SDS011;21655;46.056;13.616;2023-05-01T01:57:30;8.02;;;4.90;;
35550;SDS011;21655;46.056;13.616;2023-05-01T01:59:56;8.60;;;5.22;;
35550;SDS011;21655;46.056;13.616;2023-05-01T02:02:22;8.95;;;4.63;;
35550;SDS011;21655;46.056;13.616;2023-05-01T02:04:51;9.43;;;4.88;;
35550;SDS011;21655;46.056;13.616;2023-05-01T02:07:21;10.63;;;5.10;;
35550;SDS011;21655;46.056;13.616;2023-05-01T02:09:47;8.30;;;5.00;;
35550;SDS011;21655;46.056;13.616;2023-05-01T02:12:15;8.00;;;5.03;;
35550;SDS011;21655;46.056;13.616;2023-05-01T02:14:43;8.73;;;5.65;;
35550;SDS011;21655;46.056;13.616;2023-05-01T02:17:09;6.30;;;4.75;;
35550;SDS011;21655;46.056;13.616;2023-05-01T02:19:36;9.57;;;4.47;;
35550;SDS011;21655;46.056;13.616;2023-05-01T02:22:05;9.88;;;5.25;;
35550;SDS011;21655;46.056;13.616;2023-05-01T02:24:31;12.40;;;5.82;;
35550;SDS011;21655;46.056;13.616;2023-05-01T02:27:11;11.60;;;5.75;;
35550;SDS011;21655;46.056;13.616;2023-05-01T02:29:47;8.63;;;5.55;;
35550;SDS011;21655;46.056;13.616;2023-05-01T02:32:13;6.90;;;5.07;;
35550;SDS011;21655;46.056;13.616;2023-05-01T02:34:38;8.70;;;4.88;;
35550;SDS011;21655;46.056;13.616;2023-05-01T02:37:04;7.45;;;5.22;;
35550;SDS011;21655;46.056;13.616;2023-05-01T02:39:31;7.47;;;5.03;;
35550;SDS011;21655;46.056;13.616;2023-05-01T02:41:57;9.93;;;5.53;;
35550;SDS011;21655;46.056;13.616;2023-05-01T02:44:25;9.73;;;5.65;;
35550;SDS011;21655;46.056;13.616;2023-05-01T02:46:52;7.70;;;5.32;;
35550;SDS011;21655;46.056;13.616;2023-05-01T02:49:20;9.80;;;5.55;;
35550;SDS011;21655;46.056;13.616;2023-05-01T02:51:46;8.63;;;5.13;;
35550;SDS011;21655;46.056;13.616;2023-05-01T02:54:12;8.13;;;5.22;;
35550;SDS011;21655;46.056;13.616;2023-05-01T02:56:40;10.30;;;5.78;;
35550;SDS011;21655;46.056;13.616;2023-05-01T02:59:06;6.95;;;4.97;;
35550;SDS011;21655;46.056;13.616;2023-05-01T03:01:31;10.38;;;5.35;;
35550;SDS011;21655;46.056;13.616;2023-05-01T03:03:57;9.10;;;4.88;;
35550;SDS011;21655;46.056;13.616;2023-05-01T03:06:22;9.50;;;5.07;;
35550;SDS011;21655;46.056;13.616;2023-05-01T03:08:48;9.40;;;5.20;;
35550;SDS011;21655;46.056;13.616;2023-05-01T03:11:13;9.38;;;5.35;;
35550;SDS011;21655;46.056;13.616;2023-05-01T03:13:39;8.10;;;5.22;;
35550;SDS011;21655;46.056;13.616;2023-05-01T03:16:05;9.95;;;5.60;;
35550;SDS011;21655;46.056;13.616;2023-05-01T03:18:30;9.32;;;5.60;;
35550;SDS011;21655;46.056;13.616;2023-05-01T03:20:55;8.13;;;5.22;;
35550;SDS011;21655;46.056;13.616;2023-05-01T03:23:21;13.10;;;5.82;;
35550;SDS011;21655;46.056;13.616;2023-05-01T03:25:48;8.50;;;4.70;;
35550;SDS011;21655;46.056;13.616;2023-05-01T03:28:13;8.57;;;5.25;;
35550;SDS011;21655;46.056;13.616;2023-05-01T03:30:39;7.60;;;5.55;;
35550;SDS011;21655;46.056;13.616;2023-05-01T03:33:04;9.07;;;5.40;;
35550;SDS011;21655;46.056;13.616;2023-05-01T03:35:30;8.10;;;5.07;;
35550;SDS011;21655;46.056;13.616;2023-05-01T03:37:55;9.10;;;4.75;;
35550;SDS011;21655;46.056;13.616;2023-05-01T03:40:21;11.00;;;5.43;;
35550;SDS011;21655;46.056;13.616;2023-05-01T03:42:46;9.52;;;5.35;;
35550;SDS011;21655;46.056;13.616;2023-05-01T03:45:12;9.07;;;5.05;;
35550;SDS011;21655;46.056;13.616;2023-05-01T03:47:37;10.23;;;5.00;;
35550;SDS011;21655;46.056;13.616;2023-05-01T03:50:02;8.98;;;4.82;;
35550;SDS011;21655;46.056;13.616;2023-05-01T03:52:28;9.68;;;5.18;;
35550;SDS011;21655;46.056;13.616;2023-05-01T03:54:54;9.68;;;5.40;;
35550;SDS011;21655;46.056;13.616;2023-05-01T03:57:19;8.65;;;5.32;;
35550;SDS011;21655;46.056;13.616;2023-05-01T03:59:45;7.70;;;5.15;;
35550;SDS011;21655;46.056;13.616;2023-05-01T04:02:11;6.68;;;4.70;;
35550;SDS011;21655;46.056;13.616;2023-05-01T04:04:36;8.32;;;4.80;;
35550;SDS011;21655;46.056;13.616;2023-05-01T04:07:02;10.63;;;4.47;;
35550;SDS011;21655;46.056;13.616;2023-05-01T04:09:27;7.30;;;4.63;;
35550;SDS011;21655;46.056;13.616;2023-05-01T04:11:54;10.30;;;4.32;;
35550;SDS011;21655;46.056;13.616;2023-05-01T04:14:19;7.47;;;4.70;;
35550;SDS011;21655;46.056;13.616;2023-05-01T04:16:45;6.95;;;4.60;;
35550;SDS011;21655;46.056;13.616;2023-05-01T04:19:11;7.38;;;4.40;;
35550;SDS011;21655;46.056;13.616;2023-05-01T04:21:36;7.40;;;4.75;;
35550;SDS011;21655;46.056;13.616;2023-05-01T04:24:01;8.07;;;4.65;;
35550;SDS011;21655;46.056;13.616;2023-05-01T04:26:27;9.27;;;4.60;;
35550;SDS011;21655;46.056;13.616;2023-05-01T04:28:53;11.55;;;4.80;;
35550;SDS011;21655;46.056;13.616;2023-05-01T04:31:18;7.03;;;5.00;;
35550;SDS011;21655;46.056;13.616;2023-05-01T04:33:44;7.60;;;4.70;;
35550;SDS011;21655;46.056;13.616;2023-05-01T04:36:10;8.15;;;4.50;;
35550;SDS011;21655;46.056;13.616;2023-05-01T04:38:35;7.53;;;4.13;;
35550;SDS011;21655;46.056;13.616;2023-05-01T04:41:01;6.85;;;3.97;;
35550;SDS011;21655;46.056;13.616;2023-05-01T04:43:27;8.38;;;4.38;;
35550;SDS011;21655;46.056;13.616;2023-05-01T04:45:52;7.65;;;4.15;;
35550;SDS011;21655;46.056;13.616;2023-05-01T04:48:18;6.38;;;4.22;;
35550;SDS011;21655;46.056;13.616;2023-05-01T04:50:43;7.63;;;4.28;;
35550;SDS011;21655;46.056;13.616;2023-05-01T04:53:09;7.63;;;4.80;;
35550;SDS011;21655;46.056;13.616;2023-05-01T04:55:35;9.05;;;4.72;;
35550;SDS011;21655;46.056;13.616;2023-05-01T04:58:00;8.13;;;4.13;;
35550;SDS011;21655;46.056;13.616;2023-05-01T05:00:27;7.32;;;4.38;;
35550;SDS011;21655;46.056;13.616;2023-05-01T05:02:53;10.00;;;4.32;;
35550;SDS011;21655;46.056;13.616;2023-05-01T05:05:18;6.22;;;3.95;;
35550;SDS011;21655;46.056;13.616;2023-05-01T05:07:44;6.90;;;4.07;;
35550;SDS011;21655;46.056;13.616;2023-05-01T05:10:09;8.57;;;4.45;;
35550;SDS011;21655;46.056;13.616;2023-05-01T05:12:35;5.43;;;3.67;;
35550;SDS011;21655;46.056;13.616;2023-05-01T05:15:00;6.35;;;3.85;;
35550;SDS011;21655;46.056;13.616;2023-05-01T05:17:26;6.13;;;3.92;;
35550;SDS011;21655;46.056;13.616;2023-05-01T05:19:51;10.20;;;4.43;;
35550;SDS011;21655;46.056;13.616;2023-05-01T05:22:17;8.38;;;4.30;;
35550;SDS011;21655;46.056;13.616;2023-05-01T05:24:43;7.53;;;3.97;;
35550;SDS011;21655;46.056;13.616;2023-05-01T05:27:09;8.73;;;4.35;;
35550;SDS011;21655;46.056;13.616;2023-05-01T05:29:34;6.57;;;3.95;;
35550;SDS011;21655;46.056;13.616;2023-05-01T05:32:00;6.30;;;3.90;;
35550;SDS011;21655;46.056;13.616;2023-05-01T05:34:26;6.65;;;3.95;;
35550;SDS011;21655;46.056;13.616;2023-05-01T05:36:51;10.73;;;4.25;;
35550;SDS011;21655;46.056;13.616;2023-05-01T05:39:16;8.02;;;4.18;;
35550;SDS011;21655;46.056;13.616;2023-05-01T05:41:42;7.13;;;3.72;;
35550;SDS011;21655;46.056;13.616;2023-05-01T05:44:07;7.80;;;3.85;;
35550;SDS011;21655;46.056;13.616;2023-05-01T05:46:33;6.85;;;3.60;;
35550;SDS011;21655;46.056;13.616;2023-05-01T05:48:58;7.03;;;4.03;;
35550;SDS011;21655;46.056;13.616;2023-05-01T05:51:23;6.28;;;3.70;;
35550;SDS011;21655;46.056;13.616;2023-05-01T05:53:49;6.75;;;3.60;;
35550;SDS011;21655;46.056;13.616;2023-05-01T05:56:14;7.47;;;3.55;;
35550;SDS011;21655;46.056;13.616;2023-05-01T05:58:40;7.32;;;3.40;;
35550;SDS011;21655;46.056;13.616;2023-05-01T06:01:05;8.05;;;3.58;;
35550;SDS011;21655;46.056;13.616;2023-05-01T06:03:33;5.63;;;3.33;;
35550;SDS011;21655;46.056;13.616;2023-05-01T06:06:00;6.30;;;3.65;;
35550;SDS011;21655;46.056;13.616;2023-05-01T06:08:25;6.47;;;3.55;;
35550;SDS011;21655;46.056;13.616;2023-05-01T06:10:51;7.25;;;3.63;;
35550;SDS011;21655;46.056;13.616;2023-05-01T06:13:17;7.53;;;3.40;;
35550;SDS011;21655;46.056;13.616;2023-05-01T06:15:42;7.30;;;3.70;;
35550;SDS011;21655;46.056;13.616;2023-05-01T06:18:08;6.38;;;3.53;;
35550;SDS011;21655;46.056;13.616;2023-05-01T06:20:34;4.78;;;3.03;;
35550;SDS011;21655;46.056;13.616;2023-05-01T06:23:00;4.80;;;3.10;;
35550;SDS011;21655;46.056;13.616;2023-05-01T06:25:25;5.60;;;3.63;;
35550;SDS011;21655;46.056;13.616;2023-05-01T06:27:50;5.38;;;3.13;;
35550;SDS011;21655;46.056;13.616;2023-05-01T06:30:16;6.40;;;3.35;;
35550;SDS011;21655;46.056;13.616;2023-05-01T06:32:44;9.30;;;3.42;;
35550;SDS011;21655;46.056;13.616;2023-05-01T06:35:10;5.60;;;2.70;;
35550;SDS011;21655;46.056;13.616;2023-05-01T06:37:36;5.85;;;3.05;;
35550;SDS011;21655;46.056;13.616;2023-05-01T06:40:02;8.60;;;3.30;;
35550;SDS011;21655;46.056;13.616;2023-05-01T06:42:37;8.05;;;3.97;;
35550;SDS011;21655;46.056;13.616;2023-05-01T06:45:04;5.15;;;2.80;;
35550;SDS011;21655;46.056;13.616;2023-05-01T06:47:30;7.25;;;2.80;;
35550;SDS011;21655;46.056;13.616;2023-05-01T06:49:55;7.15;;;2.92;;
35550;SDS011;21655;46.056;13.616;2023-05-01T06:52:21;6.25;;;2.85;;
35550;SDS011;21655;46.056;13.616;2023-05-01T06:54:46;7.18;;;2.90;;
35550;SDS011;21655;46.056;13.616;2023-05-01T06:57:12;5.18;;;2.70;;
35550;SDS011;21655;46.056;13.616;2023-05-01T06:59:37;6.10;;;2.92;;
35550;SDS011;21655;46.056;13.616;2023-05-01T07:02:02;6.78;;;2.97;;
35550;SDS011;21655;46.056;13.616;2023-05-01T07:04:28;7.18;;;2.70;;
35550;SDS011;21655;46.056;13.616;2023-05-01T07:06:55;4.85;;;2.80;;
35550;SDS011;21655;46.056;13.616;2023-05-01T07:09:20;4.03;;;2.35;;
35550;SDS011;21655;46.056;13.616;2023-05-01T07:11:45;8.43;;;2.03;;
35550;SDS011;21655;46.056;13.616;2023-05-01T07:14:11;4.00;;;2.50;;
35550;SDS011;21655;46.056;13.616;2023-05-01T07:16:36;4.68;;;2.58;;
35550;SDS011;21655;46.056;13.616;2023-05-01T07:19:02;4.35;;;2.45;;
35550;SDS011;21655;46.056;13.616;2023-05-01T07:21:27;3.90;;;2.40;;
35550;SDS011;21655;46.056;13.616;2023-05-01T07:23:52;6.68;;;2.75;;
35550;SDS011;21655;46.056;13.616;2023-05-01T07:26:18;4.05;;;2.55;;
35550;SDS011;21655;46.056;13.616;2023-05-01T07:28:43;6.88;;;2.50;;
35550;SDS011;21655;46.056;13.616;2023-05-01T07:31:09;4.07;;;2.60;;
35550;SDS011;21655;46.056;13.616;2023-05-01T07:33:34;5.53;;;2.28;;
35550;SDS011;21655;46.056;13.616;2023-05-01T07:36:00;5.75;;;2.47;;
35550;SDS011;21655;46.056;13.616;2023-05-01T07:38:25;8.32;;;2.78;;
35550;SDS011;21655;46.056;13.616;2023-05-01T07:40:53;3.70;;;2.40;;
35550;SDS011;21655;46.056;13.616;2023-05-01T07:43:18;7.40;;;3.15;;
35550;SDS011;21655;46.056;13.616;2023-05-01T07:45:53;7.13;;;3.35;;
35550;SDS011;21655;46.056;13.616;2023-05-01T07:48:20;5.97;;;2.50;;
35550;SDS011;21655;46.056;13.616;2023-05-01T07:50:46;7.78;;;2.88;;
35550;SDS011;21655;46.056;13.616;2023-05-01T07:53:11;4.43;;;2.50;;
35550;SDS011;21655;46.056;13.616;2023-05-01T07:55:36;4.07;;;2.60;;
35550;SDS011;21655;46.056;13.616;2023-05-01T07:58:02;5.07;;;2.80;;
35550;SDS011;21655;46.056;13.616;2023-05-01T08:00:28;7.43;;;2.63;;
35550;SDS011;21655;46.056;13.616;2023-05-01T08:02:53;6.22;;;2.33;;
35550;SDS011;21655;46.056;13.616;2023-05-01T08:05:18;6.28;;;2.67;;
35550;SDS011;21655;46.056;13.616;2023-05-01T08:07:44;5.35;;;2.80;;
35550;SDS011;21655;46.056;13.616;2023-05-01T08:10:09;4.82;;;2.65;;
35550;SDS011;21655;46.056;13.616;2023-05-01T08:12:35;7.63;;;3.00;;
35550;SDS011;21655;46.056;13.616;2023-05-01T08:15:00;6.13;;;2.28;;
35550;SDS011;21655;46.056;13.616;2023-05-01T08:17:26;3.75;;;2.20;;
35550;SDS011;21655;46.056;13.616;2023-05-01T08:19:51;8.02;;;2.50;;
35550;SDS011;21655;46.056;13.616;2023-05-01T08:22:20;4.43;;;2.30;;
35550;SDS011;21655;46.056;13.616;2023-05-01T08:24:46;4.88;;;2.53;;
35550;SDS011;21655;46.056;13.616;2023-05-01T08:27:11;4.32;;;2.42;;
35550;SDS011;21655;46.056;13.616;2023-05-01T08:29:36;5.43;;;2.30;;
35550;SDS011;21655;46.056;13.616;2023-05-01T08:32:02;6.22;;;2.42;;
35550;SDS011;21655;46.056;13.616;2023-05-01T08:34:27;4.65;;;2.17;;
35550;SDS011;21655;46.056;13.616;2023-05-01T08:36:53;4.18;;;2.13;;
35550;SDS011;21655;46.056;13.616;2023-05-01T08:39:18;7.55;;;2.53;;
35550;SDS011;21655;46.056;13.616;2023-05-01T08:41:47;4.28;;;2.40;;
35550;SDS011;21655;46.056;13.616;2023-05-01T08:44:13;5.65;;;2.30;;
35550;SDS011;21655;46.056;13.616;2023-05-01T08:49:11;6.05;;;2.17;;
35550;SDS011;21655;46.056;13.616;2023-05-01T08:51:40;4.43;;;2.53;;
35550;SDS011;21655;46.056;13.616;2023-05-01T08:54:09;4.55;;;2.22;;
35550;SDS011;21655;46.056;13.616;2023-05-01T08:56:35;4.43;;;2.15;;
35550;SDS011;21655;46.056;13.616;2023-05-01T08:59:03;7.30;;;2.00;;
35550;SDS011;21655;46.056;13.616;2023-05-01T09:01:29;4.00;;;2.10;;
35550;SDS011;21655;46.056;13.616;2023-05-01T09:03:56;3.22;;;1.92;;
35550;SDS011;21655;46.056;13.616;2023-05-01T09:06:23;4.28;;;2.20;;
35550;SDS011;21655;46.056;13.616;2023-05-01T09:08:52;4.38;;;2.03;;
35550;SDS011;21655;46.056;13.616;2023-05-01T09:11:17;8.43;;;2.83;;
35550;SDS011;21655;46.056;13.616;2023-05-01T09:13:44;3.78;;;2.00;;
35550;SDS011;21655;46.056;13.616;2023-05-01T09:16:10;3.97;;;1.85;;
35550;SDS011;21655;46.056;13.616;2023-05-01T09:18:36;4.65;;;2.13;;
35550;SDS011;21655;46.056;13.616;2023-05-01T09:21:02;3.63;;;2.33;;
35550;SDS011;21655;46.056;13.616;2023-05-01T09:23:27;4.50;;;2.30;;
35550;SDS011;21655;46.056;13.616;2023-05-01T09:25:53;3.88;;;2.38;;
35550;SDS011;21655;46.056;13.616;2023-05-01T09:28:37;3.67;;;2.10;;
35550;SDS011;21655;46.056;13.616;2023-05-01T09:31:18;3.42;;;1.95;;
35550;SDS011;21655;46.056;13.616;2023-05-01T09:33:54;6.00;;;2.40;;
35550;SDS011;21655;46.056;13.616;2023-05-01T09:36:21;7.13;;;2.17;;
35550;SDS011;21655;46.056;13.616;2023-05-01T09:38:52;4.93;;;1.63;;
35550;SDS011;21655;46.056;13.616;2023-05-01T09:41:17;6.75;;;2.10;;
35550;SDS011;21655;46.056;13.616;2023-05-01T09:43:48;3.65;;;2.17;;
35550;SDS011;21655;46.056;13.616;2023-05-01T09:46:17;4.60;;;2.30;;
35550;SDS011;21655;46.056;13.616;2023-05-01T09:48:53;3.72;;;2.08;;
35550;SDS011;21655;46.056;13.616;2023-05-01T09:51:28;8.15;;;2.80;;
35550;SDS011;21655;46.056;13.616;2023-05-01T09:53:56;6.68;;;2.42;;
35550;SDS011;21655;46.056;13.616;2023-05-01T09:56:24;5.72;;;2.10;;
35550;SDS011;21655;46.056;13.616;2023-05-01T09:58:51;5.57;;;2.30;;
35550;SDS011;21655;46.056;13.616;2023-05-01T10:01:18;6.25;;;2.60;;
35550;SDS011;21655;46.056;13.616;2023-05-01T10:04:01;4.28;;;2.28;;
35550;SDS011;21655;46.056;13.616;2023-05-01T10:06:27;5.90;;;2.30;;
35550;SDS011;21655;46.056;13.616;2023-05-01T10:08:53;3.30;;;2.03;;
35550;SDS011;21655;46.056;13.616;2023-05-01T10:11:18;4.32;;;2.63;;
35550;SDS011;21655;46.056;13.616;2023-05-01T10:13:43;6.10;;;2.22;;
35550;SDS011;21655;46.056;13.616;2023-05-01T10:19:04;5.45;;;2.20;;
35550;SDS011;21655;46.056;13.616;2023-05-01T10:21:30;7.30;;;2.50;;
35550;SDS011;21655;46.056;13.616;2023-05-01T10:24:00;5.20;;;2.38;;
35550;SDS011;21655;46.056;13.616;2023-05-01T10:26:27;6.55;;;2.20;;
35550;SDS011;21655;46.056;13.616;2023-05-01T10:28:53;6.20;;;2.38;;
35550;SDS011;21655;46.056;13.616;2023-05-01T10:31:22;4.35;;;1.88;;
35550;SDS011;21655;46.056;13.616;2023-05-01T10:33:48;5.38;;;2.90;;
35550;SDS011;21655;46.056;13.616;2023-05-01T10:36:18;4.20;;;2.20;;
35550;SDS011;21655;46.056;13.616;2023-05-01T10:38:48;4.15;;;2.20;;
35550;SDS011;21655;46.056;13.616;2023-05-01T10:41:13;5.80;;;2.25;;
35550;SDS011;21655;46.056;13.616;2023-05-01T10:43:41;7.03;;;2.58;;
35550;SDS011;21655;46.056;13.616;2023-05-01T10:53:36;5.20;;;2.40;;
35550;SDS011;21655;46.056;13.616;2023-05-01T10:56:03;6.35;;;2.22;;
35550;SDS011;21655;46.056;13.616;2023-05-01T11:06:32;3.08;;;1.88;;
35550;SDS011;21655;46.056;13.616;2023-05-01T11:08:58;4.72;;;2.40;;
35550;SDS011;21655;46.056;13.616;2023-05-01T11:14:03;5.60;;;1.98;;
35550;SDS011;21655;46.056;13.616;2023-05-01T11:18:59;4.97;;;2.42;;
35550;SDS011;21655;46.056;13.616;2023-05-01T11:21:28;4.65;;;2.20;;
35550;SDS011;21655;46.056;13.616;2023-05-01T11:23:54;7.57;;;2.15;;
35550;SDS011;21655;46.056;13.616;2023-05-01T11:26:20;4.05;;;2.20;;
35550;SDS011;21655;46.056;13.616;2023-05-01T11:28:47;5.28;;;1.90;;
35550;SDS011;21655;46.056;13.616;2023-05-01T11:31:17;4.93;;;2.03;;
35550;SDS011;21655;46.056;13.616;2023-05-01T11:33:43;3.92;;;2.22;;
35550;SDS011;21655;46.056;13.616;2023-05-01T11:36:08;6.70;;;2.28;;
35550;SDS011;21655;46.056;13.616;2023-05-01T11:38:34;4.88;;;2.28;;
35550;SDS011;21655;46.056;13.616;2023-05-01T11:41:00;4.05;;;2.20;;
35550;SDS011;21655;46.056;13.616;2023-05-01T11:43:29;5.10;;;2.20;;
35550;SDS011;21655;46.056;13.616;2023-05-01T11:45:55;4.45;;;2.15;;
35550;SDS011;21655;46.056;13.616;2023-05-01T11:48:27;5.50;;;2.20;;
35550;SDS011;21655;46.056;13.616;2023-05-01T11:50:52;3.63;;;1.90;;
35550;SDS011;21655;46.056;13.616;2023-05-01T11:53:18;4.47;;;2.13;;
35550;SDS011;21655;46.056;13.616;2023-05-01T11:55:44;4.03;;;2.13;;
35550;SDS011;21655;46.056;13.616;2023-05-01T11:58:10;6.13;;;2.35;;
35550;SDS011;21655;46.056;13.616;2023-05-01T12:03:06;5.78;;;2.22;;
35550;SDS011;21655;46.056;13.616;2023-05-01T12:05:34;4.50;;;2.10;;
35550;SDS011;21655;46.056;13.616;2023-05-01T12:08:15;6.45;;;2.22;;
35550;SDS011;21655;46.056;13.616;2023-05-01T12:10:55;3.28;;;2.10;;
35550;SDS011;21655;46.056;13.616;2023-05-01T12:13:21;3.83;;;2.22;;
35550;SDS011;21655;46.056;13.616;2023-05-01T12:15:49;4.05;;;2.30;;
35550;SDS011;21655;46.056;13.616;2023-05-01T12:18:16;2.92;;;1.90;;
35550;SDS011;21655;46.056;13.616;2023-05-01T12:20:44;5.20;;;2.13;;
35550;SDS011;21655;46.056;13.616;2023-05-01T12:23:12;5.20;;;2.00;;
35550;SDS011;21655;46.056;13.616;2023-05-01T12:25:40;3.25;;;1.90;;
35550;SDS011;21655;46.056;13.616;2023-05-01T12:30:38;5.85;;;2.17;;
35550;SDS011;21655;46.056;13.616;2023-05-01T12:33:17;4.65;;;1.95;;
35550;SDS011;21655;46.056;13.616;2023-05-01T12:35:44;4.78;;;2.10;;
35550;SDS011;21655;46.056;13.616;2023-05-01T12:38:15;3.60;;;1.92;;
35550;SDS011;21655;46.056;13.616;2023-05-01T12:40:57;4.63;;;2.15;;
35550;SDS011;21655;46.056;13.616;2023-05-01T12:43:31;4.93;;;2.13;;
35550;SDS011;21655;46.056;13.616;2023-05-01T12:48:23;2.78;;;1.73;;
35550;SDS011;21655;46.056;13.616;2023-05-01T12:50:49;5.60;;;2.33;;
35550;SDS011;21655;46.056;13.616;2023-05-01T12:53:22;3.85;;;2.17;;
35550;SDS011;21655;46.056;13.616;2023-05-01T12:55:50;5.05;;;2.35;;
35550;SDS011;21655;46.056;13.616;2023-05-01T12:58:17;3.65;;;2.30;;
35550;SDS011;21655;46.056;13.616;2023-05-01T13:00:47;2.70;;;1.83;;
35550;SDS011;21655;46.056;13.616;2023-05-01T13:03:26;8.32;;;2.13;;
35550;SDS011;21655;46.056;13.616;2023-05-01T13:06:00;3.10;;;2.03;;
35550;SDS011;21655;46.056;13.616;2023-05-01T13:10:53;4.53;;;2.10;;
35550;SDS011;21655;46.056;13.616;2023-05-01T13:13:23;3.05;;;2.00;;
35550;SDS011;21655;46.056;13.616;2023-05-01T13:15:52;3.65;;;2.17;;
35550;SDS011;21655;46.056;13.616;2023-05-01T13:18:18;5.15;;;2.35;;
35550;SDS011;21655;46.056;13.616;2023-05-01T13:20:44;3.53;;;2.10;;
35550;SDS011;21655;46.056;13.616;2023-05-01T13:23:10;4.40;;;2.00;;
35550;SDS011;21655;46.056;13.616;2023-05-01T13:25:39;5.55;;;2.03;;
35550;SDS011;21655;46.056;13.616;2023-05-01T13:28:04;5.10;;;2.10;;
35550;SDS011;21655;46.056;13.616;2023-05-01T13:30:31;3.78;;;1.98;;
35550;SDS011;21655;46.056;13.616;2023-05-01T13:32:58;5.68;;;2.05;;
35550;SDS011;21655;46.056;13.616;2023-05-01T13:35:25;3.72;;;2.17;;
35550;SDS011;21655;46.056;13.616;2023-05-01T13:37:51;3.20;;;1.95;;
35550;SDS011;21655;46.056;13.616;2023-05-01T13:40:17;5.45;;;2.15;;
35550;SDS011;21655;46.056;13.616;2023-05-01T13:42:43;3.63;;;2.30;;
35550;SDS011;21655;46.056;13.616;2023-05-01T13:45:09;5.55;;;2.45;;
35550;SDS011;21655;46.056;13.616;2023-05-01T13:47:36;6.05;;;2.38;;
35550;SDS011;21655;46.056;13.616;2023-05-01T13:50:04;4.57;;;2.78;;
35550;SDS011;21655;46.056;13.616;2023-05-01T13:52:40;5.18;;;2.28;;
35550;SDS011;21655;46.056;13.616;2023-05-01T13:55:10;5.00;;;2.40;;
35550;SDS011;21655;46.056;13.616;2023-05-01T13:57:36;5.30;;;2.40;;
35550;SDS011;21655;46.056;13.616;2023-05-01T14:00:05;5.15;;;2.00;;
35550;SDS011;21655;46.056;13.616;2023-05-01T14:02:33;4.15;;;2.20;;
35550;SDS011;21655;46.056;13.616;2023-05-01T14:05:01;6.50;;;2.40;;
35550;SDS011;21655;46.056;13.616;2023-05-01T14:07:33;5.60;;;2.63;;
35550;SDS011;21655;46.056;13.616;2023-05-01T14:10:04;4.45;;;2.72;;
35550;SDS011;21655;46.056;13.616;2023-05-01T14:12:32;3.35;;;2.17;;
35550;SDS011;21655;46.056;13.616;2023-05-01T14:14:58;7.57;;;3.15;;
35550;SDS011;21655;46.056;13.616;2023-05-01T14:17:34;4.40;;;2.30;;
35550;SDS011;21655;46.056;13.616;2023-05-01T14:20:02;6.72;;;2.75;;
35550;SDS011;21655;46.056;13.616;2023-05-01T14:22:33;4.43;;;2.78;;
35550;SDS011;21655;46.056;13.616;2023-05-01T14:27:48;4.90;;;2.88;;
35550;SDS011;21655;46.056;13.616;2023-05-01T14:30:18;5.25;;;2.90;;
35550;SDS011;21655;46.056;13.616;2023-05-01T14:32:46;8.48;;;3.30;;
35550;SDS011;21655;46.056;13.616;2023-05-01T14:35:12;7.50;;;3.03;;
35550;SDS011;21655;46.056;13.616;2023-05-01T14:37:37;4.07;;;2.83;;
35550;SDS011;21655;46.056;13.616;2023-05-01T14:40:03;6.22;;;3.72;;
35550;SDS011;21655;46.056;13.616;2023-05-01T14:42:39;5.78;;;3.38;;
35550;SDS011;21655;46.056;13.616;2023-05-01T14:45:07;6.25;;;3.60;;
35550;SDS011;21655;46.056;13.616;2023-05-01T14:47:43;3.88;;;3.08;;
35550;SDS011;21655;46.056;13.616;2023-05-01T14:50:11;6.50;;;3.67;;
35550;SDS011;21655;46.056;13.616;2023-05-01T14:52:42;4.88;;;3.40;;
35550;SDS011;21655;46.056;13.616;2023-05-01T14:55:07;4.47;;;3.40;;
35550;SDS011;21655;46.056;13.616;2023-05-01T14:57:35;5.40;;;3.33;;
35550;SDS011;21655;46.056;13.616;2023-05-01T15:00:01;5.25;;;3.08;;
35550;SDS011;21655;46.056;13.616;2023-05-01T15:02:26;5.20;;;3.53;;
35550;SDS011;21655;46.056;13.616;2023-05-01T15:04:52;5.75;;;3.80;;
35550;SDS011;21655;46.056;13.616;2023-05-01T15:07:17;5.30;;;3.75;;
35550;SDS011;21655;46.056;13.616;2023-05-01T15:09:43;6.43;;;3.72;;
35550;SDS011;21655;46.056;13.616;2023-05-01T15:12:10;5.72;;;3.88;;
35550;SDS011;21655;46.056;13.616;2023-05-01T15:14:35;5.45;;;3.50;;
35550;SDS011;21655;46.056;13.616;2023-05-01T15:17:01;5.53;;;3.70;;
35550;SDS011;21655;46.056;13.616;2023-05-01T15:19:26;4.88;;;3.38;;
35550;SDS011;21655;46.056;13.616;2023-05-01T15:21:52;5.50;;;3.55;;
35550;SDS011;21655;46.056;13.616;2023-05-01T15:24:17;6.07;;;4.32;;